Northwestern — WDE5199 — position and weather

sailwx.info

Track history (hours):
 
Tides and Currents Weather Stations Pressure Air Temp Water Temp Dewpoint Dewpoint Depression Visibility Wind Speed Wind Dir Waves Ship Positions

Northwestern

Owner: Northwestern LLC, Seattle, WA. More information available from US FCC via Universal Licensing System and Coast Guard Vessel Documentation Center.

Last reported at 2017-Jun-15 15:08 UTC. Time now 2017-Nov-18 06:51 UTC.
Position N 48°36' W 125°02'.
Warning: this ship's position is months out of date.

Length 38 m; draft 4.3 m.

Type: Fishing. MMSI: 367363350.

Date/timePositionNaut miles runAvg speedWind from/ knotsBaromVisibWave heightAir tempDewpointWater temp
2017-Jun-15 15:08N 48°36' W 125°02'311.1
2017-Jun-15 14:54N 48°35' W 124°58'411.2
2017-Jun-15 14:30N 48°33' W 124°52'1110.8
2017-Jun-15 13:30N 48°29' W 124°37'610.9
2017-Jun-15 12:58N 48°27' W 124°29'510.8
2017-Jun-15 12:30N 48°24' W 124°22'510.9
2017-Jun-15 12:00N 48°22' W 124°14'611.0
2017-Jun-15 11:30N 48°20' W 124°06'510.4
2017-Jun-15 10:59N 48°18' W 123°59'510.9
2017-Jun-15 10:30N 48°17' W 123°51'611.7
2017-Jun-15 10:00N 48°16' W 123°43'612.7
2017-Jun-15 09:30N 48°15' W 123°33'611.3
2017-Jun-15 09:00N 48°14' W 123°25'611.4
2017-Jun-15 08:30N 48°14' W 123°16'611.5
2017-Jun-15 08:00N 48°13' W 123°08'611.0
2017-Jun-15 07:30N 48°12' W 122°60'611.7
2017-Jun-15 07:00N 48°12' W 122°51'610.9
2017-Jun-15 06:29N 48°09' W 122°43'810.6
2017-Jun-15 05:43N 48°02' W 122°37'210.6
2017-Jun-15 05:30N 48°00' W 122°36'510.2
2017-Jun-15 05:00N 47°56' W 122°31'510.0
2017-Jun-15 04:30N 47°52' W 122°28'510.3
2017-Jun-15 04:00N 47°47' W 122°26'510.2
2017-Jun-15 03:30N 47°42' W 122°26'2 3.1
2017-Jun-15 03:00N 47°41' W 122°25'0 0.0
2017-Jun-15 02:30N 47°41' W 122°25'0 0.0
2017-Jun-15 02:00N 47°41' W 122°25'0 0.0
2017-Jun-15 01:30N 47°41' W 122°25'0 0.0
2017-Jun-15 01:00N 47°41' W 122°25'0 0.0
2017-Jun-15 00:30N 47°41' W 122°25'1 1.7
2017-Jun-15 00:00N 47°40' W 122°24'  
Track history (hours):
 
Tides and Currents Weather Stations Pressure Air Temp Water Temp Dewpoint Dewpoint Depression Visibility Wind Speed Wind Dir Waves Ship Positions

Northwestern

Owner: Northwestern LLC, Seattle, WA. More information available from US FCC via Universal Licensing System and Coast Guard Vessel Documentation Center.

Last reported at 2017-Jun-15 15:08 UTC. Time now 2017-Nov-18 06:51 UTC.
Position N 48°36' W 125°02'.
Warning: this ship's position is months out of date.

Length 38 m; draft 4.3 m.

Type: Fishing. MMSI: 367363350.

Date/timePositionNaut miles runAvg speedWind from/ knotsBaromVisibWave heightAir tempDewpointWater temp
2017-Jun-15 15:08N 48°36' W 125°02'311.1
2017-Jun-15 14:54N 48°35' W 124°58'411.2
2017-Jun-15 14:30N 48°33' W 124°52'1110.8
2017-Jun-15 13:30N 48°29' W 124°37'610.9
2017-Jun-15 12:58N 48°27' W 124°29'510.8
2017-Jun-15 12:30N 48°24' W 124°22'510.9
2017-Jun-15 12:00N 48°22' W 124°14'611.0
2017-Jun-15 11:30N 48°20' W 124°06'510.4
2017-Jun-15 10:59N 48°18' W 123°59'510.9
2017-Jun-15 10:30N 48°17' W 123°51'611.7
2017-Jun-15 10:00N 48°16' W 123°43'612.7
2017-Jun-15 09:30N 48°15' W 123°33'611.3
2017-Jun-15 09:00N 48°14' W 123°25'611.4
2017-Jun-15 08:30N 48°14' W 123°16'611.5
2017-Jun-15 08:00N 48°13' W 123°08'611.0
2017-Jun-15 07:30N 48°12' W 122°60'611.7
2017-Jun-15 07:00N 48°12' W 122°51'610.9
2017-Jun-15 06:29N 48°09' W 122°43'810.6
2017-Jun-15 05:43N 48°02' W 122°37'210.6
2017-Jun-15 05:30N 48°00' W 122°36'510.2
2017-Jun-15 05:00N 47°56' W 122°31'510.0
2017-Jun-15 04:30N 47°52' W 122°28'510.3
2017-Jun-15 04:00N 47°47' W 122°26'510.2
2017-Jun-15 03:30N 47°42' W 122°26'2 3.1
2017-Jun-15 03:00N 47°41' W 122°25'0 0.0
2017-Jun-15 02:30N 47°41' W 122°25'0 0.0
2017-Jun-15 02:00N 47°41' W 122°25'0 0.0
2017-Jun-15 01:30N 47°41' W 122°25'0 0.0
2017-Jun-15 01:00N 47°41' W 122°25'0 0.0
2017-Jun-15 00:30N 47°41' W 122°25'1 1.7
2017-Jun-15 00:00N 47°40' W 122°24'  

Dump ship's entire track history